sensor_id;sensor_type;location;lat;lon;timestamp;noise_LAeq;noise_LA_min;noise_LA_max;noise_LA01;noise_LA95
72028;Laerm;59781;52.090;5.030;2023-05-07T00:00:05;47.00;38.03;62.35;;
72028;Laerm;59781;52.090;5.030;2023-05-07T00:02:34;40.90;37.68;51.22;;
72028;Laerm;59781;52.090;5.030;2023-05-07T00:05:00;42.71;38.45;51.54;;
72028;Laerm;59781;52.090;5.030;2023-05-07T00:07:26;43.24;38.35;58.74;;
72028;Laerm;59781;52.090;5.030;2023-05-07T00:09:51;41.86;37.92;59.03;;
72028;Laerm;59781;52.090;5.030;2023-05-07T00:12:17;40.41;37.77;45.85;;
72028;Laerm;59781;52.090;5.030;2023-05-07T00:14:43;40.05;37.59;45.43;;
72028;Laerm;59781;52.090;5.030;2023-05-07T00:17:08;39.81;37.13;45.32;;
72028;Laerm;59781;52.090;5.030;2023-05-07T00:19:34;39.20;37.43;42.22;;
72028;Laerm;59781;52.090;5.030;2023-05-07T00:22:00;40.21;37.52;48.43;;
72028;Laerm;59781;52.090;5.030;2023-05-07T00:24:25;39.92;37.64;44.23;;
72028;Laerm;59781;52.090;5.030;2023-05-07T00:26:51;40.17;37.38;45.61;;
72028;Laerm;59781;52.090;5.030;2023-05-07T00:29:18;40.67;37.57;48.08;;
72028;Laerm;59781;52.090;5.030;2023-05-07T00:31:44;41.50;38.26;49.33;;
72028;Laerm;59781;52.090;5.030;2023-05-07T00:34:09;40.89;37.28;49.14;;
72028;Laerm;59781;52.090;5.030;2023-05-07T00:36:35;42.32;38.20;56.16;;
72028;Laerm;59781;52.090;5.030;2023-05-07T00:39:01;41.45;37.80;57.90;;
72028;Laerm;59781;52.090;5.030;2023-05-07T00:41:29;46.61;38.64;78.85;;
72028;Laerm;59781;52.090;5.030;2023-05-07T00:43:56;42.16;38.09;63.87;;
72028;Laerm;59781;52.090;5.030;2023-05-07T00:46:22;40.36;37.64;51.60;;
72028;Laerm;59781;52.090;5.030;2023-05-07T00:48:50;40.62;37.82;48.24;;
72028;Laerm;59781;52.090;5.030;2023-05-07T00:51:17;40.18;37.05;58.17;;
72028;Laerm;59781;52.090;5.030;2023-05-07T00:53:45;40.65;37.44;45.26;;
72028;Laerm;59781;52.090;5.030;2023-05-07T00:56:11;40.41;37.09;62.49;;
72028;Laerm;59781;52.090;5.030;2023-05-07T00:58:38;40.55;37.14;51.64;;
72028;Laerm;59781;52.090;5.030;2023-05-07T01:01:04;40.98;38.06;46.81;;
72028;Laerm;59781;52.090;5.030;2023-05-07T01:03:29;41.05;37.88;60.04;;
72028;Laerm;59781;52.090;5.030;2023-05-07T01:05:58;43.04;38.83;65.04;;
72028;Laerm;59781;52.090;5.030;2023-05-07T01:08:27;48.56;40.19;70.44;;
72028;Laerm;59781;52.090;5.030;2023-05-07T01:10:57;48.85;41.50;68.35;;
72028;Laerm;59781;52.090;5.030;2023-05-07T01:13:24;44.40;38.26;64.59;;
72028;Laerm;59781;52.090;5.030;2023-05-07T01:15:50;42.89;38.31;63.68;;
72028;Laerm;59781;52.090;5.030;2023-05-07T01:18:16;42.26;38.23;66.05;;
72028;Laerm;59781;52.090;5.030;2023-05-07T01:20:42;40.62;37.23;62.60;;
72028;Laerm;59781;52.090;5.030;2023-05-07T01:23:11;46.09;37.61;71.71;;
72028;Laerm;59781;52.090;5.030;2023-05-07T01:25:37;49.13;40.23;71.15;;
72028;Laerm;59781;52.090;5.030;2023-05-07T01:28:03;56.18;42.87;85.33;;
72028;Laerm;59781;52.090;5.030;2023-05-07T01:30:35;53.94;39.93;85.54;;
72028;Laerm;59781;52.090;5.030;2023-05-07T01:33:15;45.36;38.34;66.48;;
72028;Laerm;59781;52.090;5.030;2023-05-07T01:35:48;42.77;37.30;63.13;;
72028;Laerm;59781;52.090;5.030;2023-05-07T01:38:16;42.61;37.43;63.72;;
72028;Laerm;59781;52.090;5.030;2023-05-07T01:40:43;43.67;37.42;62.10;;
72028;Laerm;59781;52.090;5.030;2023-05-07T01:43:10;42.12;37.41;65.69;;
72028;Laerm;59781;52.090;5.030;2023-05-07T01:45:38;42.36;37.74;64.13;;
72028;Laerm;59781;52.090;5.030;2023-05-07T01:48:09;41.18;37.62;61.26;;
72028;Laerm;59781;52.090;5.030;2023-05-07T01:50:37;43.48;37.42;59.23;;
72028;Laerm;59781;52.090;5.030;2023-05-07T01:53:03;40.53;37.05;57.18;;
72028;Laerm;59781;52.090;5.030;2023-05-07T01:55:29;40.81;37.82;56.91;;
72028;Laerm;59781;52.090;5.030;2023-05-07T01:57:54;41.35;37.45;57.97;;
72028;Laerm;59781;52.090;5.030;2023-05-07T02:00:20;41.97;37.50;58.43;;
72028;Laerm;59781;52.090;5.030;2023-05-07T02:02:49;41.60;36.99;54.86;;
72028;Laerm;59781;52.090;5.030;2023-05-07T02:05:25;40.94;37.92;58.45;;
72028;Laerm;59781;52.090;5.030;2023-05-07T02:07:58;41.26;37.63;53.26;;
72028;Laerm;59781;52.090;5.030;2023-05-07T02:10:25;40.90;37.22;58.01;;
72028;Laerm;59781;52.090;5.030;2023-05-07T02:12:51;44.78;38.23;71.48;;
72028;Laerm;59781;52.090;5.030;2023-05-07T02:15:17;41.29;37.56;55.40;;
72028;Laerm;59781;52.090;5.030;2023-05-07T02:18:07;41.28;37.64;57.82;;
72028;Laerm;59781;52.090;5.030;2023-05-07T02:20:33;40.24;36.95;53.00;;
72028;Laerm;59781;52.090;5.030;2023-05-07T02:22:59;41.16;37.41;51.55;;
72028;Laerm;59781;52.090;5.030;2023-05-07T02:25:28;41.66;37.28;61.23;;
72028;Laerm;59781;52.090;5.030;2023-05-07T02:27:54;41.37;36.85;59.44;;
72028;Laerm;59781;52.090;5.030;2023-05-07T02:30:25;39.95;36.78;45.88;;
72028;Laerm;59781;52.090;5.030;2023-05-07T02:32:53;40.13;37.42;63.32;;
72028;Laerm;59781;52.090;5.030;2023-05-07T02:35:18;39.96;37.54;46.83;;
72028;Laerm;59781;52.090;5.030;2023-05-07T02:37:44;40.04;37.50;44.86;;
72028;Laerm;59781;52.090;5.030;2023-05-07T02:40:11;41.48;37.51;64.98;;
72028;Laerm;59781;52.090;5.030;2023-05-07T02:42:37;40.55;37.63;45.93;;
72028;Laerm;59781;52.090;5.030;2023-05-07T02:45:03;40.01;37.22;45.87;;
72028;Laerm;59781;52.090;5.030;2023-05-07T02:47:30;39.93;37.52;46.42;;
72028;Laerm;59781;52.090;5.030;2023-05-07T02:49:57;40.32;36.98;51.76;;
72028;Laerm;59781;52.090;5.030;2023-05-07T02:52:23;40.41;37.54;46.27;;
72028;Laerm;59781;52.090;5.030;2023-05-07T02:54:49;39.48;37.38;44.95;;
72028;Laerm;59781;52.090;5.030;2023-05-07T02:57:15;39.67;37.70;44.76;;
72028;Laerm;59781;52.090;5.030;2023-05-07T02:59:42;40.02;38.01;44.21;;
72028;Laerm;59781;52.090;5.030;2023-05-07T03:02:08;40.29;37.54;60.50;;
72028;Laerm;59781;52.090;5.030;2023-05-07T03:04:34;40.36;37.51;46.33;;
72028;Laerm;59781;52.090;5.030;2023-05-07T03:07:00;40.59;37.58;46.44;;
72028;Laerm;59781;52.090;5.030;2023-05-07T03:09:26;40.58;37.67;49.37;;
72028;Laerm;59781;52.090;5.030;2023-05-07T03:11:51;41.85;38.47;50.84;;
72028;Laerm;59781;52.090;5.030;2023-05-07T03:14:17;42.26;37.82;56.22;;
72028;Laerm;59781;52.090;5.030;2023-05-07T03:16:43;42.15;38.45;51.96;;
72028;Laerm;59781;52.090;5.030;2023-05-07T03:19:08;42.09;38.71;53.72;;
72028;Laerm;59781;52.090;5.030;2023-05-07T03:21:34;41.68;38.71;48.98;;
72028;Laerm;59781;52.090;5.030;2023-05-07T03:24:00;48.47;37.97;71.87;;
72028;Laerm;59781;52.090;5.030;2023-05-07T03:26:26;49.96;38.05;65.01;;
72028;Laerm;59781;52.090;5.030;2023-05-07T03:28:52;44.09;37.91;58.34;;
72028;Laerm;59781;52.090;5.030;2023-05-07T03:31:18;45.36;37.89;67.01;;
72028;Laerm;59781;52.090;5.030;2023-05-07T03:33:52;40.92;37.98;46.04;;
72028;Laerm;59781;52.090;5.030;2023-05-07T03:36:19;44.81;38.33;65.17;;
72028;Laerm;59781;52.090;5.030;2023-05-07T03:38:46;43.87;38.03;65.83;;
72028;Laerm;59781;52.090;5.030;2023-05-07T03:41:12;40.57;37.81;56.00;;
72028;Laerm;59781;52.090;5.030;2023-05-07T03:43:38;39.83;37.66;44.98;;
72028;Laerm;59781;52.090;5.030;2023-05-07T03:46:08;40.43;37.69;50.53;;
72028;Laerm;59781;52.090;5.030;2023-05-07T03:48:34;49.72;37.42;62.29;;
72028;Laerm;59781;52.090;5.030;2023-05-07T03:51:00;39.85;37.48;48.88;;
72028;Laerm;59781;52.090;5.030;2023-05-07T03:53:30;40.98;37.67;57.22;;
72028;Laerm;59781;52.090;5.030;2023-05-07T03:55:55;40.35;37.44;64.46;;
72028;Laerm;59781;52.090;5.030;2023-05-07T03:58:21;39.77;37.51;43.07;;
72028;Laerm;59781;52.090;5.030;2023-05-07T04:00:47;40.19;37.88;45.11;;
72028;Laerm;59781;52.090;5.030;2023-05-07T04:03:22;40.15;37.44;44.50;;
72028;Laerm;59781;52.090;5.030;2023-05-07T04:05:48;40.03;37.88;45.48;;
72028;Laerm;59781;52.090;5.030;2023-05-07T04:08:14;40.00;37.16;46.61;;
72028;Laerm;59781;52.090;5.030;2023-05-07T04:10:45;39.67;37.55;44.35;;
72028;Laerm;59781;52.090;5.030;2023-05-07T04:13:12;40.63;37.83;47.20;;
72028;Laerm;59781;52.090;5.030;2023-05-07T04:15:38;39.66;37.29;45.99;;
72028;Laerm;59781;52.090;5.030;2023-05-07T04:18:07;39.74;37.84;55.99;;
72028;Laerm;59781;52.090;5.030;2023-05-07T04:20:34;39.71;37.35;50.49;;
72028;Laerm;59781;52.090;5.030;2023-05-07T04:23:02;39.53;37.43;43.90;;
72028;Laerm;59781;52.090;5.030;2023-05-07T04:25:29;46.43;38.14;62.92;;
72028;Laerm;59781;52.090;5.030;2023-05-07T04:28:01;47.86;37.61;66.40;;
72028;Laerm;59781;52.090;5.030;2023-05-07T04:30:28;49.10;37.46;66.62;;
72028;Laerm;59781;52.090;5.030;2023-05-07T04:32:54;40.11;37.45;47.51;;
72028;Laerm;59781;52.090;5.030;2023-05-07T04:35:21;45.95;37.27;75.95;;
72028;Laerm;59781;52.090;5.030;2023-05-07T04:37:48;41.13;37.65;52.88;;
72028;Laerm;59781;52.090;5.030;2023-05-07T04:40:13;42.17;37.28;60.67;;
72028;Laerm;59781;52.090;5.030;2023-05-07T04:42:41;50.57;37.25;74.78;;
72028;Laerm;59781;52.090;5.030;2023-05-07T04:45:08;39.94;36.95;59.14;;
72028;Laerm;59781;52.090;5.030;2023-05-07T04:47:34;39.81;37.27;43.90;;
72028;Laerm;59781;52.090;5.030;2023-05-07T04:50:01;39.53;37.50;43.54;;
72028;Laerm;59781;52.090;5.030;2023-05-07T04:52:27;40.06;37.29;50.88;;
72028;Laerm;59781;52.090;5.030;2023-05-07T04:54:53;40.02;37.76;50.94;;
72028;Laerm;59781;52.090;5.030;2023-05-07T04:57:19;40.12;37.64;44.19;;
72028;Laerm;59781;52.090;5.030;2023-05-07T04:59:45;40.48;37.61;50.30;;
72028;Laerm;59781;52.090;5.030;2023-05-07T05:02:11;41.32;38.15;48.78;;
72028;Laerm;59781;52.090;5.030;2023-05-07T05:04:37;40.36;37.69;44.67;;
72028;Laerm;59781;52.090;5.030;2023-05-07T05:07:04;43.48;38.45;68.08;;
72028;Laerm;59781;52.090;5.030;2023-05-07T05:09:30;45.26;39.11;75.15;;
72028;Laerm;59781;52.090;5.030;2023-05-07T05:11:56;47.96;38.85;77.87;;
72028;Laerm;59781;52.090;5.030;2023-05-07T05:14:22;43.53;38.96;57.14;;
72028;Laerm;59781;52.090;5.030;2023-05-07T05:16:49;41.66;37.74;51.05;;
72028;Laerm;59781;52.090;5.030;2023-05-07T05:19:15;42.14;38.60;55.44;;
72028;Laerm;59781;52.090;5.030;2023-05-07T05:21:43;42.68;38.63;59.76;;
72028;Laerm;59781;52.090;5.030;2023-05-07T05:24:10;44.20;39.03;61.10;;
72028;Laerm;59781;52.090;5.030;2023-05-07T05:26:35;41.21;38.84;55.06;;
72028;Laerm;59781;52.090;5.030;2023-05-07T05:29:02;42.01;38.66;49.94;;
72028;Laerm;59781;52.090;5.030;2023-05-07T05:31:29;44.27;37.33;54.70;;
72028;Laerm;59781;52.090;5.030;2023-05-07T05:33:55;44.42;38.27;69.86;;
72028;Laerm;59781;52.090;5.030;2023-05-07T05:36:21;43.31;38.73;67.52;;
72028;Laerm;59781;52.090;5.030;2023-05-07T05:38:48;41.05;38.15;53.76;;
72028;Laerm;59781;52.090;5.030;2023-05-07T05:41:14;41.47;38.31;53.36;;
72028;Laerm;59781;52.090;5.030;2023-05-07T05:43:40;42.58;38.94;51.44;;
72028;Laerm;59781;52.090;5.030;2023-05-07T05:46:06;42.68;38.57;48.41;;
72028;Laerm;59781;52.090;5.030;2023-05-07T05:48:32;43.49;38.96;51.65;;
72028;Laerm;59781;52.090;5.030;2023-05-07T05:51:00;41.80;38.87;47.16;;
72028;Laerm;59781;52.090;5.030;2023-05-07T05:53:25;42.37;38.75;48.96;;
72028;Laerm;59781;52.090;5.030;2023-05-07T05:55:51;42.45;38.54;51.28;;
72028;Laerm;59781;52.090;5.030;2023-05-07T05:58:17;42.12;38.09;46.56;;
72028;Laerm;59781;52.090;5.030;2023-05-07T06:00:50;41.42;38.60;53.79;;
72028;Laerm;59781;52.090;5.030;2023-05-07T06:03:18;41.83;38.53;48.94;;
72028;Laerm;59781;52.090;5.030;2023-05-07T06:05:44;41.65;38.20;60.33;;
72028;Laerm;59781;52.090;5.030;2023-05-07T06:08:11;43.07;39.23;58.27;;
72028;Laerm;59781;52.090;5.030;2023-05-07T06:10:38;41.09;38.37;44.76;;
72028;Laerm;59781;52.090;5.030;2023-05-07T06:13:05;41.27;38.66;58.16;;
72028;Laerm;59781;52.090;5.030;2023-05-07T06:15:32;41.64;38.67;52.68;;
72028;Laerm;59781;52.090;5.030;2023-05-07T06:18:03;40.79;38.38;45.75;;
72028;Laerm;59781;52.090;5.030;2023-05-07T06:20:29;41.39;38.43;51.17;;
72028;Laerm;59781;52.090;5.030;2023-05-07T06:22:56;41.41;38.77;57.07;;
72028;Laerm;59781;52.090;5.030;2023-05-07T06:25:22;41.33;38.67;57.79;;
72028;Laerm;59781;52.090;5.030;2023-05-07T06:27:47;40.82;38.48;46.21;;
72028;Laerm;59781;52.090;5.030;2023-05-07T06:30:13;41.11;38.64;46.85;;
72028;Laerm;59781;52.090;5.030;2023-05-07T06:32:40;41.57;38.76;50.02;;
72028;Laerm;59781;52.090;5.030;2023-05-07T06:35:07;41.01;38.09;45.13;;
72028;Laerm;59781;52.090;5.030;2023-05-07T06:37:35;40.70;38.04;44.08;;
72028;Laerm;59781;52.090;5.030;2023-05-07T06:40:08;41.22;37.87;63.59;;
72028;Laerm;59781;52.090;5.030;2023-05-07T06:42:39;42.38;38.24;70.75;;
72028;Laerm;59781;52.090;5.030;2023-05-07T06:45:43;52.46;39.43;79.90;;
72028;Laerm;59781;52.090;5.030;2023-05-07T06:48:09;60.35;45.87;89.38;;
72028;Laerm;59781;52.090;5.030;2023-05-07T06:50:45;57.51;44.51;82.91;;
72028;Laerm;59781;52.090;5.030;2023-05-07T06:53:11;56.84;45.59;81.22;;
72028;Laerm;59781;52.090;5.030;2023-05-07T06:55:37;57.88;46.07;86.58;;
72028;Laerm;59781;52.090;5.030;2023-05-07T06:58:05;55.59;43.85;83.44;;
72028;Laerm;59781;52.090;5.030;2023-05-07T07:00:31;49.34;41.31;76.10;;
72028;Laerm;59781;52.090;5.030;2023-05-07T07:02:57;50.41;39.92;67.50;;
72028;Laerm;59781;52.090;5.030;2023-05-07T07:05:26;46.56;40.48;58.02;;
72028;Laerm;59781;52.090;5.030;2023-05-07T07:07:52;47.67;38.20;59.35;;
72028;Laerm;59781;52.090;5.030;2023-05-07T07:10:19;41.45;37.92;48.71;;
72028;Laerm;59781;52.090;5.030;2023-05-07T07:12:46;43.03;38.27;58.80;;
72028;Laerm;59781;52.090;5.030;2023-05-07T07:15:13;42.93;38.70;49.87;;
72028;Laerm;59781;52.090;5.030;2023-05-07T07:17:40;42.68;38.80;49.51;;
72028;Laerm;59781;52.090;5.030;2023-05-07T07:20:06;42.46;38.55;51.09;;
72028;Laerm;59781;52.090;5.030;2023-05-07T07:22:32;43.21;38.55;55.88;;
72028;Laerm;59781;52.090;5.030;2023-05-07T07:24:59;42.50;38.25;58.98;;
72028;Laerm;59781;52.090;5.030;2023-05-07T07:27:25;42.71;38.41;57.70;;
72028;Laerm;59781;52.090;5.030;2023-05-07T07:29:51;42.17;38.45;56.55;;
72028;Laerm;59781;52.090;5.030;2023-05-07T07:32:17;42.37;37.90;51.85;;
72028;Laerm;59781;52.090;5.030;2023-05-07T07:34:43;42.23;37.69;64.51;;
72028;Laerm;59781;52.090;5.030;2023-05-07T07:37:09;41.23;37.42;58.55;;
72028;Laerm;59781;52.090;5.030;2023-05-07T07:39:36;41.58;37.74;58.99;;
72028;Laerm;59781;52.090;5.030;2023-05-07T07:42:07;43.74;37.76;66.62;;
72028;Laerm;59781;52.090;5.030;2023-05-07T07:44:33;50.74;40.01;77.07;;
72028;Laerm;59781;52.090;5.030;2023-05-07T07:47:04;47.77;39.14;77.29;;
72028;Laerm;59781;52.090;5.030;2023-05-07T07:49:30;44.87;38.21;69.16;;
72028;Laerm;59781;52.090;5.030;2023-05-07T07:51:59;43.52;38.54;52.55;;
72028;Laerm;59781;52.090;5.030;2023-05-07T07:54:26;48.12;38.47;62.72;;
72028;Laerm;59781;52.090;5.030;2023-05-07T07:56:52;51.28;38.64;63.88;;
72028;Laerm;59781;52.090;5.030;2023-05-07T07:59:18;44.18;39.15;67.05;;
72028;Laerm;59781;52.090;5.030;2023-05-07T08:01:45;45.48;38.59;73.54;;
72028;Laerm;59781;52.090;5.030;2023-05-07T08:04:13;44.03;38.99;58.05;;
72028;Laerm;59781;52.090;5.030;2023-05-07T08:06:41;49.03;37.69;62.18;;
72028;Laerm;59781;52.090;5.030;2023-05-07T08:09:08;42.65;38.32;54.80;;
72028;Laerm;59781;52.090;5.030;2023-05-07T08:11:34;42.68;38.35;63.71;;
72028;Laerm;59781;52.090;5.030;2023-05-07T08:14:02;46.31;39.84;77.30;;
72028;Laerm;59781;52.090;5.030;2023-05-07T08:16:28;43.75;38.93;66.20;;
72028;Laerm;59781;52.090;5.030;2023-05-07T08:18:54;46.57;39.83;67.69;;
72028;Laerm;59781;52.090;5.030;2023-05-07T08:21:20;46.01;39.77;62.24;;
72028;Laerm;59781;52.090;5.030;2023-05-07T08:23:45;49.32;40.05;60.71;;
72028;Laerm;59781;52.090;5.030;2023-05-07T08:26:11;51.02;39.10;63.99;;
72028;Laerm;59781;52.090;5.030;2023-05-07T08:28:37;44.84;38.64;66.11;;
72028;Laerm;59781;52.090;5.030;2023-05-07T08:31:03;42.89;38.70;53.52;;
72028;Laerm;59781;52.090;5.030;2023-05-07T08:33:33;42.65;39.41;47.12;;
72028;Laerm;59781;52.090;5.030;2023-05-07T08:35:59;48.57;40.99;67.23;;
72028;Laerm;59781;52.090;5.030;2023-05-07T08:38:25;49.32;40.02;70.55;;
72028;Laerm;59781;52.090;5.030;2023-05-07T08:40:52;42.91;38.71;59.77;;
72028;Laerm;59781;52.090;5.030;2023-05-07T08:43:22;45.92;38.90;67.80;;
72028;Laerm;59781;52.090;5.030;2023-05-07T08:45:54;43.21;37.43;61.00;;
72028;Laerm;59781;52.090;5.030;2023-05-07T08:48:27;44.59;37.98;64.57;;
72028;Laerm;59781;52.090;5.030;2023-05-07T08:51:18;42.78;38.09;54.74;;
72028;Laerm;59781;52.090;5.030;2023-05-07T08:53:47;43.36;38.54;62.47;;
72028;Laerm;59781;52.090;5.030;2023-05-07T08:56:17;43.62;38.71;60.41;;
72028;Laerm;59781;52.090;5.030;2023-05-07T08:58:47;43.11;38.34;61.54;;
72028;Laerm;59781;52.090;5.030;2023-05-07T09:01:16;45.50;38.25;55.61;;
72028;Laerm;59781;52.090;5.030;2023-05-07T09:03:46;43.60;38.09;58.23;;
72028;Laerm;59781;52.090;5.030;2023-05-07T09:06:13;48.99;38.95;61.04;;
72028;Laerm;59781;52.090;5.030;2023-05-07T09:08:40;46.94;38.30;68.84;;
72028;Laerm;59781;52.090;5.030;2023-05-07T09:11:07;45.40;39.35;60.03;;
72028;Laerm;59781;52.090;5.030;2023-05-07T09:13:32;42.27;37.96;52.07;;
72028;Laerm;59781;52.090;5.030;2023-05-07T09:16:11;44.41;38.36;65.65;;
72028;Laerm;59781;52.090;5.030;2023-05-07T09:18:42;45.84;38.72;56.96;;
72028;Laerm;59781;52.090;5.030;2023-05-07T09:21:15;42.71;37.59;58.40;;
72028;Laerm;59781;52.090;5.030;2023-05-07T09:23:41;43.70;38.89;54.82;;
72028;Laerm;59781;52.090;5.030;2023-05-07T09:26:08;42.11;37.78;50.04;;
72028;Laerm;59781;52.090;5.030;2023-05-07T09:28:39;40.66;37.01;55.04;;
72028;Laerm;59781;52.090;5.030;2023-05-07T09:31:11;48.94;37.87;66.83;;
72028;Laerm;59781;52.090;5.030;2023-05-07T09:33:39;47.02;37.58;64.27;;
72028;Laerm;59781;52.090;5.030;2023-05-07T09:36:08;41.73;37.10;58.78;;
72028;Laerm;59781;52.090;5.030;2023-05-07T09:38:38;41.64;37.93;54.40;;
72028;Laerm;59781;52.090;5.030;2023-05-07T09:41:10;45.23;38.03;59.14;;
72028;Laerm;59781;52.090;5.030;2023-05-07T09:43:54;42.25;38.34;55.33;;
72028;Laerm;59781;52.090;5.030;2023-05-07T09:46:30;49.15;37.19;72.66;;
72028;Laerm;59781;52.090;5.030;2023-05-07T09:49:02;49.39;39.52;71.07;;
72028;Laerm;59781;52.090;5.030;2023-05-07T09:51:45;48.03;39.69;68.82;;
72028;Laerm;59781;52.090;5.030;2023-05-07T09:54:16;48.62;38.33;63.61;;
72028;Laerm;59781;52.090;5.030;2023-05-07T09:56:45;50.80;39.08;64.22;;
72028;Laerm;59781;52.090;5.030;2023-05-07T09:59:16;50.54;39.91;65.50;;
72028;Laerm;59781;52.090;5.030;2023-05-07T10:01:44;42.70;37.34;59.71;;
72028;Laerm;59781;52.090;5.030;2023-05-07T10:04:12;42.01;37.79;59.75;;
72028;Laerm;59781;52.090;5.030;2023-05-07T10:06:43;51.55;38.35;71.04;;
72028;Laerm;59781;52.090;5.030;2023-05-07T10:09:11;43.11;38.24;54.86;;
72028;Laerm;59781;52.090;5.030;2023-05-07T10:11:38;50.66;39.43;60.78;;
72028;Laerm;59781;52.090;5.030;2023-05-07T10:14:05;42.89;38.58;56.49;;
72028;Laerm;59781;52.090;5.030;2023-05-07T10:16:35;46.46;39.21;63.93;;
72028;Laerm;59781;52.090;5.030;2023-05-07T10:19:03;50.50;38.76;64.45;;
72028;Laerm;59781;52.090;5.030;2023-05-07T10:21:30;43.75;37.98;62.16;;
72028;Laerm;59781;52.090;5.030;2023-05-07T10:24:19;44.31;38.64;64.40;;
72028;Laerm;59781;52.090;5.030;2023-05-07T10:26:51;45.89;38.98;65.20;;
72028;Laerm;59781;52.090;5.030;2023-05-07T10:29:32;60.03;38.93;90.74;;
72028;Laerm;59781;52.090;5.030;2023-05-07T10:32:49;48.81;38.07;66.33;;
72028;Laerm;59781;52.090;5.030;2023-05-07T10:35:29;44.03;37.90;56.12;;
72028;Laerm;59781;52.090;5.030;2023-05-07T10:37:59;55.14;38.11;80.95;;
72028;Laerm;59781;52.090;5.030;2023-05-07T10:40:27;61.56;38.23;93.59;;
72028;Laerm;59781;52.090;5.030;2023-05-07T10:42:59;42.32;38.43;51.78;;
72028;Laerm;59781;52.090;5.030;2023-05-07T10:45:28;48.76;38.57;63.19;;
72028;Laerm;59781;52.090;5.030;2023-05-07T10:50:42;45.81;39.35;67.64;;
72028;Laerm;59781;52.090;5.030;2023-05-07T10:53:22;44.41;38.98;57.90;;
72028;Laerm;59781;52.090;5.030;2023-05-07T10:58:45;49.78;38.59;64.61;;
72028;Laerm;59781;52.090;5.030;2023-05-07T11:01:57;50.09;39.51;73.96;;
72028;Laerm;59781;52.090;5.030;2023-05-07T11:04:43;48.37;38.38;73.51;;
72028;Laerm;59781;52.090;5.030;2023-05-07T11:07:27;45.18;37.73;58.63;;
72028;Laerm;59781;52.090;5.030;2023-05-07T11:10:00;44.35;37.93;64.31;;
72028;Laerm;59781;52.090;5.030;2023-05-07T11:12:53;42.35;38.37;59.67;;
72028;Laerm;59781;52.090;5.030;2023-05-07T11:15:40;43.04;38.04;60.03;;
72028;Laerm;59781;52.090;5.030;2023-05-07T11:18:21;46.95;38.47;58.98;;
72028;Laerm;59781;52.090;5.030;2023-05-07T11:20:56;50.54;38.10;73.98;;
72028;Laerm;59781;52.090;5.030;2023-05-07T11:23:55;48.69;38.48;62.70;;
72028;Laerm;59781;52.090;5.030;2023-05-07T11:26:49;47.18;39.38;62.57;;
72028;Laerm;59781;52.090;5.030;2023-05-07T11:29:19;51.80;39.36;68.61;;
72028;Laerm;59781;52.090;5.030;2023-05-07T11:31:54;53.72;39.61;77.23;;
72028;Laerm;59781;52.090;5.030;2023-05-07T11:34:24;58.79;39.82;84.84;;
72028;Laerm;59781;52.090;5.030;2023-05-07T11:36:53;61.22;39.08;84.82;;
72028;Laerm;59781;52.090;5.030;2023-05-07T11:39:32;60.66;38.95;95.61;;
72028;Laerm;59781;52.090;5.030;2023-05-07T11:42:00;47.01;38.34;73.47;;
72028;Laerm;59781;52.090;5.030;2023-05-07T11:44:44;51.05;39.03;75.68;;
72028;Laerm;59781;52.090;5.030;2023-05-07T11:47:17;45.87;38.62;64.82;;
72028;Laerm;59781;52.090;5.030;2023-05-07T11:49:50;45.01;38.11;65.13;;
72028;Laerm;59781;52.090;5.030;2023-05-07T11:52:18;44.16;38.65;64.29;;
72028;Laerm;59781;52.090;5.030;2023-05-07T11:54:56;46.89;38.83;73.26;;
72028;Laerm;59781;52.090;5.030;2023-05-07T11:57:24;52.30;40.25;72.00;;
72028;Laerm;59781;52.090;5.030;2023-05-07T12:00:00;51.04;40.01;74.38;;
72028;Laerm;59781;52.090;5.030;2023-05-07T12:02:38;47.83;38.17;73.60;;
72028;Laerm;59781;52.090;5.030;2023-05-07T12:05:04;43.15;37.46;64.60;;
72028;Laerm;59781;52.090;5.030;2023-05-07T12:07:30;43.23;38.22;54.07;;
72028;Laerm;59781;52.090;5.030;2023-05-07T12:09:57;43.41;38.57;56.14;;
72028;Laerm;59781;52.090;5.030;2023-05-07T12:12:23;50.87;38.47;78.54;;
72028;Laerm;59781;52.090;5.030;2023-05-07T12:14:49;55.13;39.20;84.92;;
72028;Laerm;59781;52.090;5.030;2023-05-07T12:17:16;45.26;38.47;62.80;;
72028;Laerm;59781;52.090;5.030;2023-05-07T12:19:44;43.82;38.16;64.50;;
72028;Laerm;59781;52.090;5.030;2023-05-07T12:22:11;42.91;38.17;63.45;;
72028;Laerm;59781;52.090;5.030;2023-05-07T12:24:49;45.47;37.63;67.75;;
72028;Laerm;59781;52.090;5.030;2023-05-07T12:27:17;43.76;38.95;57.63;;
72028;Laerm;59781;52.090;5.030;2023-05-07T12:29:47;50.42;39.53;66.08;;
72028;Laerm;59781;52.090;5.030;2023-05-07T12:32:15;45.79;38.05;65.42;;
72028;Laerm;59781;52.090;5.030;2023-05-07T12:34:42;46.99;38.97;71.16;;
72028;Laerm;59781;52.090;5.030;2023-05-07T12:37:08;47.42;38.71;76.18;;
72028;Laerm;59781;52.090;5.030;2023-05-07T12:39:34;46.58;38.71;66.94;;
72028;Laerm;59781;52.090;5.030;2023-05-07T12:42:00;44.55;39.15;63.60;;
72028;Laerm;59781;52.090;5.030;2023-05-07T12:44:31;44.96;38.79;60.07;;
72028;Laerm;59781;52.090;5.030;2023-05-07T12:46:57;49.11;39.58;63.32;;
72028;Laerm;59781;52.090;5.030;2023-05-07T12:49:24;49.26;38.69;64.72;;
72028;Laerm;59781;52.090;5.030;2023-05-07T12:51:50;47.52;38.76;67.85;;
72028;Laerm;59781;52.090;5.030;2023-05-07T12:54:35;43.38;38.55;56.20;;
72028;Laerm;59781;52.090;5.030;2023-05-07T12:57:08;43.74;38.20;67.81;;
72028;Laerm;59781;52.090;5.030;2023-05-07T12:59:40;48.10;38.89;67.80;;
72028;Laerm;59781;52.090;5.030;2023-05-07T13:02:08;42.39;37.57;47.52;;
72028;Laerm;59781;52.090;5.030;2023-05-07T13:04:35;42.77;38.42;54.17;;
72028;Laerm;59781;52.090;5.030;2023-05-07T13:07:02;45.72;38.17;66.89;;
72028;Laerm;59781;52.090;5.030;2023-05-07T13:09:29;42.67;38.31;66.29;;
72028;Laerm;59781;52.090;5.030;2023-05-07T13:11:55;44.47;37.86;58.77;;
72028;Laerm;59781;52.090;5.030;2023-05-07T13:14:21;41.68;38.14;54.45;;
72028;Laerm;59781;52.090;5.030;2023-05-07T13:16:49;42.26;38.67;54.84;;
72028;Laerm;59781;52.090;5.030;2023-05-07T13:19:15;50.68;38.58;72.70;;
72028;Laerm;59781;52.090;5.030;2023-05-07T13:21:41;45.02;37.71;59.74;;
72028;Laerm;59781;52.090;5.030;2023-05-07T13:24:07;45.09;38.06;64.90;;
72028;Laerm;59781;52.090;5.030;2023-05-07T13:26:33;55.69;40.70;64.14;;
72028;Laerm;59781;52.090;5.030;2023-05-07T13:28:58;55.45;39.23;73.79;;
72028;Laerm;59781;52.090;5.030;2023-05-07T13:31:25;56.84;37.96;77.68;;
72028;Laerm;59781;52.090;5.030;2023-05-07T13:33:50;44.81;38.88;62.70;;
72028;Laerm;59781;52.090;5.030;2023-05-07T13:36:16;48.42;39.85;62.51;;
72028;Laerm;59781;52.090;5.030;2023-05-07T13:38:42;45.79;38.76;67.14;;
72028;Laerm;59781;52.090;5.030;2023-05-07T13:41:07;44.67;38.45;67.54;;
72028;Laerm;59781;52.090;5.030;2023-05-07T13:43:33;47.55;38.89;64.68;;
72028;Laerm;59781;52.090;5.030;2023-05-07T13:46:00;46.36;38.33;68.21;;
72028;Laerm;59781;52.090;5.030;2023-05-07T13:48:26;48.78;38.61;76.59;;
72028;Laerm;59781;52.090;5.030;2023-05-07T13:50:51;45.03;39.33;63.00;;
72028;Laerm;59781;52.090;5.030;2023-05-07T13:53:17;44.80;39.35;59.22;;
72028;Laerm;59781;52.090;5.030;2023-05-07T13:55:44;48.88;39.24;61.79;;
72028;Laerm;59781;52.090;5.030;2023-05-07T13:58:11;46.17;39.17;57.71;;